createdAt,value
2017-04-21T00:00:03.392Z,806.7
2017-04-21T00:00:07.471Z,806.66
2017-04-21T00:00:11.777Z,806.69
2017-04-21T00:00:16.084Z,806.64
2017-04-21T00:00:20.512Z,806.68
2017-04-21T00:00:24.951Z,806.67
2017-04-21T00:00:29.266Z,806.68
2017-04-21T00:00:33.906Z,806.68
2017-04-21T00:00:38.337Z,806.68
2017-04-21T00:00:42.656Z,806.64
2017-04-21T00:00:46.956Z,806.65
2017-04-21T00:00:51.261Z,806.65
2017-04-21T00:00:55.688Z,806.6
2017-04-21T00:01:00.120Z,806.63
2017-04-21T00:01:04.425Z,806.62
2017-04-21T00:01:08.725Z,806.6
2017-04-21T00:01:13.160Z,806.66
2017-04-21T00:01:17.592Z,806.62
2017-04-21T00:01:22.012Z,806.59
2017-04-21T00:01:26.317Z,806.67
2017-04-21T00:01:30.628Z,806.61
2017-04-21T00:01:35.053Z,806.59
2017-04-21T00:01:39.477Z,806.6
2017-04-21T00:01:43.901Z,806.61
2017-04-21T00:01:48.221Z,806.59
2017-04-21T00:01:52.648Z,806.59
2017-04-21T00:01:57.068Z,806.61
2017-04-21T00:02:01.501Z,806.6
2017-04-21T00:02:05.887Z,806.59
2017-04-21T00:02:10.072Z,806.59
2017-04-21T00:02:14.497Z,806.61
2017-04-21T00:02:18.691Z,806.58
2017-04-21T00:02:23.001Z,806.55
2017-04-21T00:02:27.307Z,806.57
2017-04-21T00:02:31.617Z,806.53
2017-04-21T00:02:36.070Z,806.57
2017-04-21T00:02:40.382Z,806.58
2017-04-21T00:02:44.991Z,806.56
2017-04-21T00:02:49.627Z,806.57
2017-04-21T00:02:54.067Z,806.58
2017-04-21T00:02:58.484Z,806.56
2017-04-21T00:03:02.905Z,806.56
2017-04-21T00:03:07.334Z,806.54
2017-04-21T00:03:11.783Z,806.53
2017-04-21T00:03:16.109Z,806.52
2017-04-21T00:03:20.538Z,806.54
2017-04-21T00:03:24.998Z,806.55
2017-04-21T00:03:29.426Z,806.53
2017-04-21T00:03:33.858Z,806.54
2017-04-21T00:03:38.289Z,806.51
2017-04-21T00:03:42.610Z,806.52
2017-04-21T00:03:47.047Z,806.53
2017-04-21T00:03:51.479Z,806.5
2017-04-21T00:03:56.072Z,806.51
2017-04-21T00:04:00.508Z,806.49
2017-04-21T00:04:04.932Z,806.49
2017-04-21T00:04:09.127Z,806.5
2017-04-21T00:04:13.566Z,806.5
2017-04-21T00:04:18.009Z,806.5
2017-04-21T00:04:22.439Z,806.5
2017-04-21T00:04:26.877Z,806.47
2017-04-21T00:04:31.312Z,806.48
2017-04-21T00:04:35.733Z,806.49
2017-04-21T00:04:40.162Z,806.5
2017-04-21T00:04:44.591Z,806.48
2017-04-21T00:04:48.893Z,806.5
2017-04-21T00:04:53.085Z,806.51
2017-04-21T00:04:57.511Z,806.5
2017-04-21T00:05:01.946Z,806.49
2017-04-21T00:05:06.202Z,806.47
2017-04-21T00:05:10.620Z,806.48
2017-04-21T00:05:14.925Z,806.47
2017-04-21T00:05:19.374Z,806.49
2017-04-21T00:05:23.791Z,806.45
2017-04-21T00:05:28.215Z,806.47
2017-04-21T00:05:32.634Z,806.47
2017-04-21T00:05:37.064Z,806.45
2017-04-21T00:05:41.481Z,806.45
2017-04-21T00:05:45.671Z,806.43
2017-04-21T00:05:49.997Z,806.46
2017-04-21T00:05:54.424Z,806.42
2017-04-21T00:05:58.724Z,806.44
2017-04-21T00:06:03.345Z,806.43
2017-04-21T00:06:07.942Z,806.4
2017-04-21T00:06:12.371Z,806.39
2017-04-21T00:06:16.793Z,806.39
2017-04-21T00:06:21.223Z,806.4
2017-04-21T00:06:25.653Z,806.4
2017-04-21T00:06:30.079Z,806.38
2017-04-21T00:06:34.500Z,806.38
2017-04-21T00:06:38.812Z,806.41
2017-04-21T00:06:43.004Z,806.39
2017-04-21T00:06:47.428Z,806.36
2017-04-21T00:06:51.851Z,806.37
2017-04-21T00:06:56.175Z,806.36
2017-04-21T00:07:00.606Z,806.36
2017-04-21T00:07:05.072Z,806.37
2017-04-21T00:07:09.386Z,806.38
2017-04-21T00:07:13.815Z,806.33
2017-04-21T00:07:18.436Z,806.32
2017-04-21T00:07:22.856Z,806.37
2017-04-21T00:07:27.283Z,806.36
2017-04-21T00:07:31.730Z,806.36
2017-04-21T00:07:35.921Z,806.35
2017-04-21T00:07:40.351Z,806.34
2017-04-21T00:07:44.802Z,806.34
2017-04-21T00:07:49.246Z,806.35
2017-04-21T00:07:53.674Z,806.34
2017-04-21T00:07:58.113Z,806.34
2017-04-21T00:08:02.595Z,806.34
2017-04-21T00:08:06.905Z,806.35
2017-04-21T00:08:11.097Z,806.31
2017-04-21T00:08:15.300Z,806.34
2017-04-21T00:08:19.725Z,806.3
2017-04-21T00:08:24.157Z,806.35
2017-04-21T00:08:28.909Z,806.37
2017-04-21T00:08:33.250Z,806.33
2017-04-21T00:08:37.554Z,806.34
2017-04-21T00:08:41.981Z,806.34
2017-04-21T00:08:46.188Z,806.35
2017-04-21T00:08:50.619Z,806.37
2017-04-21T00:08:55.038Z,806.34
2017-04-21T00:08:59.459Z,806.27
2017-04-21T00:09:03.925Z,806.31
2017-04-21T00:09:08.250Z,806.32
2017-04-21T00:09:12.679Z,806.28
2017-04-21T00:09:17.120Z,806.3
2017-04-21T00:09:21.554Z,806.27
2017-04-21T00:09:25.752Z,806.31
2017-04-21T00:09:30.176Z,806.31
2017-04-21T00:09:34.653Z,806.33
2017-04-21T00:09:39.082Z,806.32
2017-04-21T00:09:43.506Z,806.33
2017-04-21T00:09:47.700Z,806.32
2017-04-21T00:09:52.132Z,806.35
2017-04-21T00:09:56.564Z,806.27
2017-04-21T00:10:00.996Z,806.3
2017-04-21T00:10:20.233Z,806.32
2017-04-21T00:10:24.421Z,806.34
2017-04-21T00:10:28.726Z,806.34
2017-04-21T00:10:33.154Z,806.31
2017-04-21T00:10:37.587Z,806.3
2017-04-21T00:10:42.001Z,806.31
2017-04-21T00:10:46.303Z,806.32
2017-04-21T00:10:50.719Z,806.34
2017-04-21T00:10:55.039Z,806.33
2017-04-21T00:10:59.467Z,806.35
2017-04-21T00:11:04.095Z,806.36
2017-04-21T00:11:08.401Z,806.29
2017-04-21T00:11:12.840Z,806.31
2017-04-21T00:11:17.259Z,806.36
2017-04-21T00:11:21.681Z,806.31
2017-04-21T00:11:26.003Z,806.29
2017-04-21T00:11:30.427Z,806.3
2017-04-21T00:11:34.731Z,806.31
2017-04-21T00:11:39.040Z,806.32
2017-04-21T00:11:43.483Z,806.3
2017-04-21T00:11:47.910Z,806.32
2017-04-21T00:11:52.335Z,806.3
2017-04-21T00:11:56.755Z,806.33
2017-04-21T00:12:01.193Z,806.27
2017-04-21T00:12:05.813Z,806.29
2017-04-21T00:12:09.884Z,806.3
2017-04-21T00:12:14.307Z,806.29
2017-04-21T00:12:18.733Z,806.3
2017-04-21T00:12:23.155Z,806.34
2017-04-21T00:12:27.577Z,806.31
2017-04-21T00:12:32.015Z,806.36
2017-04-21T00:12:36.443Z,806.35
2017-04-21T00:12:40.870Z,806.3
2017-04-21T00:12:45.302Z,806.36
2017-04-21T00:12:49.774Z,806.32
2017-04-21T00:12:54.201Z,806.33
2017-04-21T00:12:58.808Z,806.33
2017-04-21T00:13:03.238Z,806.32
2017-04-21T00:13:07.664Z,806.3
2017-04-21T00:13:12.087Z,806.38
2017-04-21T00:13:16.402Z,806.25
2017-04-21T00:13:20.828Z,806.31
2017-04-21T00:13:25.165Z,806.33
2017-04-21T00:13:29.584Z,806.31
2017-04-21T00:13:33.905Z,806.3
2017-04-21T00:13:38.211Z,806.3
2017-04-21T00:13:42.515Z,806.32
2017-04-21T00:13:46.951Z,806.28
2017-04-21T00:13:51.385Z,806.27
2017-04-21T00:13:55.821Z,806.27
2017-04-21T00:14:00.247Z,806.31
2017-04-21T00:14:04.870Z,806.28
2017-04-21T00:14:09.261Z,806.27
2017-04-21T00:14:13.572Z,806.28
2017-04-21T00:14:18.001Z,806.28
2017-04-21T00:14:22.424Z,806.27
2017-04-21T00:14:26.856Z,806.28
2017-04-21T00:14:31.292Z,806.22
2017-04-21T00:14:35.717Z,806.23
2017-04-21T00:14:40.143Z,806.24
2017-04-21T00:14:44.575Z,806.21
2017-04-21T00:14:49.000Z,806.21
2017-04-21T00:14:53.431Z,806.25
2017-04-21T00:14:57.742Z,806.24
2017-04-21T00:15:02.282Z,806.24
2017-04-21T00:15:06.589Z,806.27
2017-04-21T00:15:10.780Z,806.25
2017-04-21T00:15:15.120Z,806.24
2017-04-21T00:15:19.462Z,806.2
2017-04-21T00:15:23.766Z,806.2
2017-04-21T00:15:28.073Z,806.23
2017-04-21T00:15:32.386Z,806.22
2017-04-21T00:15:36.803Z,806.22
2017-04-21T00:15:41.110Z,806.22
2017-04-21T00:15:45.536Z,806.25
2017-04-21T00:15:49.965Z,806.22
2017-04-21T00:15:54.388Z,806.23
2017-04-21T00:15:58.817Z,806.24
2017-04-21T00:16:03.393Z,806.23
2017-04-21T00:16:07.818Z,806.21
2017-04-21T00:16:12.244Z,806.22
2017-04-21T00:16:16.676Z,806.23
2017-04-21T00:16:21.125Z,806.24
2017-04-21T00:16:25.439Z,806.16
2017-04-21T00:16:29.863Z,806.16
2017-04-21T00:16:34.172Z,806.17
2017-04-21T00:16:38.615Z,806.16
2017-04-21T00:16:42.921Z,806.16
2017-04-21T00:16:47.343Z,806.14
2017-04-21T00:16:51.796Z,806.2
2017-04-21T00:16:56.216Z,806.16
2017-04-21T00:17:00.637Z,806.19
2017-04-21T00:17:04.943Z,806.18
2017-04-21T00:17:09.257Z,806.18
2017-04-21T00:17:13.687Z,806.16
2017-04-21T00:17:18.112Z,806.15
2017-04-21T00:17:22.544Z,806.16
2017-04-21T00:17:26.968Z,806.1
2017-04-21T00:17:31.157Z,806.16
2017-04-21T00:17:35.583Z,806.17
2017-04-21T00:17:40.029Z,806.16
2017-04-21T00:17:44.480Z,806.13
2017-04-21T00:17:48.906Z,806.06
2017-04-21T00:17:53.333Z,806.08
2017-04-21T00:17:57.649Z,806.09
2017-04-21T00:18:02.059Z,806.11
2017-04-21T00:18:06.485Z,806.14
2017-04-21T00:18:10.914Z,806.1
2017-04-21T00:18:15.375Z,806.1
2017-04-21T00:18:19.808Z,806.07
2017-04-21T00:18:24.240Z,806.02
2017-04-21T00:18:28.566Z,806.07
2017-04-21T00:18:33.000Z,806.1
2017-04-21T00:18:37.571Z,806.11
2017-04-21T00:18:42.102Z,806.12
2017-04-21T00:18:46.416Z,806.07
2017-04-21T00:18:50.723Z,806.07
2017-04-21T00:18:55.154Z,806.1
2017-04-21T00:18:59.485Z,806.1
2017-04-21T00:19:04.159Z,806.07
2017-04-21T00:19:08.588Z,806.06
2017-04-21T00:19:12.904Z,806.05
2017-04-21T00:19:17.225Z,806.04
2017-04-21T00:19:21.663Z,806.02
2017-04-21T00:19:26.093Z,805.98
2017-04-21T00:19:30.525Z,806.03
2017-04-21T00:19:34.952Z,806.03
2017-04-21T00:19:39.259Z,806.04
2017-04-21T00:19:43.684Z,806.04
2017-04-21T00:19:48.150Z,806
2017-04-21T00:19:52.358Z,805.98
2017-04-21T00:19:56.782Z,805.99
2017-04-21T00:20:01.207Z,806.01
2017-04-21T00:20:05.631Z,806.01
2017-04-21T00:20:10.062Z,806
2017-04-21T00:20:14.487Z,805.91
2017-04-21T00:20:18.910Z,805.91
2017-04-21T00:20:23.367Z,805.93
2017-04-21T00:20:27.791Z,805.91
2017-04-21T00:20:32.211Z,805.92
2017-04-21T00:20:36.515Z,805.96
2017-04-21T00:20:40.967Z,805.91
2017-04-21T00:20:45.154Z,805.92
2017-04-21T00:20:49.465Z,805.9
2017-04-21T00:20:54.043Z,805.91
2017-04-21T00:20:58.486Z,805.92
2017-04-21T00:21:02.793Z,805.9
2017-04-21T00:21:07.097Z,805.89
2017-04-21T00:21:11.410Z,805.89
2017-04-21T00:21:15.837Z,805.89
2017-04-21T00:21:20.265Z,805.89
2017-04-21T00:21:24.574Z,805.91
2017-04-21T00:21:28.892Z,805.88
2017-04-21T00:21:33.194Z,805.85
2017-04-21T00:21:37.618Z,805.85
2017-04-21T00:21:42.049Z,805.85
2017-04-21T00:21:46.471Z,805.86
2017-04-21T00:21:50.780Z,805.86
2017-04-21T00:21:55.197Z,805.88
2017-04-21T00:21:59.621Z,805.85
2017-04-21T00:22:04.329Z,805.91
2017-04-21T00:22:08.756Z,805.89
2017-04-21T00:22:13.184Z,805.89
2017-04-21T00:22:17.618Z,805.91
2017-04-21T00:22:22.042Z,805.89
2017-04-21T00:22:26.350Z,805.89
2017-04-21T00:22:30.792Z,805.86
2017-04-21T00:22:35.237Z,805.85
2017-04-21T00:22:39.650Z,805.86
2017-04-21T00:22:43.957Z,805.86
2017-04-21T00:22:48.388Z,805.86
2017-04-21T00:22:52.807Z,805.89
2017-04-21T00:22:57.230Z,805.87
2017-04-21T00:23:01.541Z,805.87
2017-04-21T00:23:06.008Z,805.89
2017-04-21T00:23:10.321Z,805.87
2017-04-21T00:23:14.820Z,805.85
2017-04-21T00:23:19.248Z,805.86
2017-04-21T00:23:23.685Z,805.88
2017-04-21T00:23:27.993Z,805.88
2017-04-21T00:23:32.412Z,805.89
2017-04-21T00:23:36.844Z,805.88
2017-04-21T00:23:41.273Z,805.89
2017-04-21T00:23:45.699Z,805.84
2017-04-21T00:23:50.122Z,805.87
2017-04-21T00:23:54.448Z,805.83
2017-04-21T00:23:58.868Z,805.85
2017-04-21T00:24:03.590Z,805.85
2017-04-21T00:24:08.014Z,805.86
2017-04-21T00:24:12.445Z,805.86
2017-04-21T00:24:16.753Z,805.81
2017-04-21T00:24:21.270Z,805.88
2017-04-21T00:24:25.711Z,805.85
2017-04-21T00:24:30.140Z,805.83
2017-04-21T00:24:34.447Z,805.83
2017-04-21T00:24:38.753Z,805.85
2017-04-21T00:24:43.183Z,805.86
2017-04-21T00:24:47.608Z,805.84
2017-04-21T00:24:52.035Z,805.82
2017-04-21T00:24:56.460Z,805.85
2017-04-21T00:25:00.891Z,805.8
2017-04-21T00:25:05.296Z,805.85
2017-04-21T00:25:09.604Z,805.85
2017-04-21T00:25:14.034Z,805.83
2017-04-21T00:25:18.462Z,805.86
2017-04-21T00:25:22.893Z,805.84
2017-04-21T00:25:27.314Z,805.79
2017-04-21T00:25:31.751Z,805.77
2017-04-21T00:25:36.061Z,805.83
2017-04-21T00:25:40.479Z,805.82
2017-04-21T00:25:44.906Z,805.78
2017-04-21T00:25:49.359Z,805.82
2017-04-21T00:25:53.779Z,805.8
2017-04-21T00:25:58.210Z,805.86
2017-04-21T00:26:02.885Z,805.89
2017-04-21T00:26:07.311Z,805.87
2017-04-21T00:26:11.737Z,805.87
2017-04-21T00:26:15.922Z,805.89
2017-04-21T00:26:20.117Z,805.89
2017-04-21T00:26:24.543Z,805.89
2017-04-21T00:26:28.738Z,805.88
2017-04-21T00:26:33.042Z,805.83
2017-04-21T00:26:37.357Z,805.86
2017-04-21T00:26:41.779Z,805.85
2017-04-21T00:26:46.204Z,805.9
2017-04-21T00:26:50.511Z,805.86
2017-04-21T00:26:54.972Z,805.86
2017-04-21T00:26:59.395Z,805.86
2017-04-21T00:27:03.816Z,805.85
2017-04-21T00:27:08.001Z,805.89
2017-04-21T00:27:12.456Z,805.85
2017-04-21T00:27:16.878Z,805.91
2017-04-21T00:27:21.305Z,805.87
2017-04-21T00:27:25.739Z,805.88
2017-04-21T00:27:30.159Z,805.89
2017-04-21T00:27:34.462Z,805.87
2017-04-21T00:27:38.894Z,805.86
2017-04-21T00:27:43.409Z,805.89
2017-04-21T00:27:47.932Z,805.87
2017-04-21T00:27:52.362Z,805.87
2017-04-21T00:27:56.797Z,805.88
2017-04-21T00:28:01.108Z,805.88
2017-04-21T00:28:05.513Z,805.86
2017-04-21T00:28:09.822Z,805.85
2017-04-21T00:28:14.264Z,805.88
2017-04-21T00:28:18.688Z,805.86
2017-04-21T00:28:23.116Z,805.84
2017-04-21T00:28:27.545Z,805.85
2017-04-21T00:28:31.981Z,805.84
2017-04-21T00:28:36.407Z,805.87
2017-04-21T00:28:40.839Z,805.85
2017-04-21T00:28:45.273Z,805.82
2017-04-21T00:28:49.809Z,805.88
2017-04-21T00:28:54.310Z,805.87
2017-04-21T00:28:58.732Z,805.85
2017-04-21T00:29:03.206Z,805.85
2017-04-21T00:29:07.522Z,805.86
2017-04-21T00:29:11.946Z,805.84
2017-04-21T00:29:16.384Z,805.84
2017-04-21T00:29:20.826Z,805.86
2017-04-21T00:29:25.144Z,805.83
2017-04-21T00:29:29.222Z,805.83
2017-04-21T00:29:33.529Z,805.83
2017-04-21T00:29:37.960Z,805.84
2017-04-21T00:29:42.158Z,805.84
2017-04-21T00:29:46.586Z,805.83
2017-04-21T00:29:51.012Z,805.81
2017-04-21T00:29:55.444Z,805.85
2017-04-21T00:29:59.870Z,805.82
2017-04-21T00:30:04.290Z,805.81
2017-04-21T00:30:08.607Z,805.84
2017-04-21T00:30:13.035Z,805.82
2017-04-21T00:30:17.460Z,805.77
2017-04-21T00:30:21.896Z,805.74
2017-04-21T00:30:26.336Z,805.81
2017-04-21T00:30:30.639Z,805.8
2017-04-21T00:30:34.944Z,805.8
2017-04-21T00:30:39.370Z,805.79
2017-04-21T00:30:43.792Z,805.82
2017-04-21T00:30:48.210Z,805.78
2017-04-21T00:30:52.682Z,805.79
2017-04-21T00:30:57.124Z,805.79
2017-04-21T00:31:01.752Z,805.78
2017-04-21T00:31:06.052Z,805.77
2017-04-21T00:31:10.478Z,805.79
2017-04-21T00:31:14.921Z,805.79
2017-04-21T00:31:19.343Z,805.77
2017-04-21T00:31:23.532Z,805.77
2017-04-21T00:31:27.957Z,805.76
2017-04-21T00:31:32.376Z,805.77
2017-04-21T00:31:36.676Z,805.78
2017-04-21T00:31:41.099Z,805.77
2017-04-21T00:31:45.524Z,805.8
2017-04-21T00:31:49.827Z,805.79
2017-04-21T00:31:54.254Z,805.78
2017-04-21T00:31:58.684Z,805.72
2017-04-21T00:32:03.187Z,805.7
2017-04-21T00:32:07.613Z,805.77
2017-04-21T00:32:12.040Z,805.8
2017-04-21T00:32:16.542Z,805.8
2017-04-21T00:32:21.039Z,805.82
2017-04-21T00:32:25.342Z,805.8
2017-04-21T00:32:29.652Z,805.8
2017-04-21T00:32:34.083Z,805.77
2017-04-21T00:32:38.508Z,805.81
2017-04-21T00:32:42.943Z,805.79
2017-04-21T00:32:47.382Z,805.76
2017-04-21T00:32:51.815Z,805.79
2017-04-21T00:32:56.247Z,805.8
2017-04-21T00:33:00.676Z,805.74
2017-04-21T00:33:05.146Z,805.77
2017-04-21T00:33:09.568Z,805.81
2017-04-21T00:33:14.005Z,805.79
2017-04-21T00:33:18.429Z,805.77
2017-04-21T00:33:22.769Z,805.82
2017-04-21T00:33:27.161Z,805.8
2017-04-21T00:33:31.595Z,805.79
2017-04-21T00:33:36.024Z,805.79
2017-04-21T00:33:40.479Z,805.8
2017-04-21T00:33:44.793Z,805.79
2017-04-21T00:33:49.218Z,805.8
2017-04-21T00:33:53.653Z,805.77
2017-04-21T00:33:58.085Z,805.74
2017-04-21T00:34:02.654Z,805.79
2017-04-21T00:34:06.960Z,805.77
2017-04-21T00:34:11.277Z,805.81
2017-04-21T00:34:15.709Z,805.82
2017-04-21T00:34:20.145Z,805.8
2017-04-21T00:34:24.581Z,805.82
2017-04-21T00:34:29.014Z,805.81
2017-04-21T00:34:33.684Z,805.81
2017-04-21T00:34:38.105Z,805.81
2017-04-21T00:34:42.423Z,805.78
2017-04-21T00:34:46.841Z,805.8
2017-04-21T00:34:51.275Z,805.77
2017-04-21T00:34:55.702Z,805.79
2017-04-21T00:35:00.022Z,805.78
2017-04-21T00:35:04.336Z,805.75
2017-04-21T00:35:08.646Z,805.72
2017-04-21T00:35:12.961Z,805.76
2017-04-21T00:35:17.389Z,805.78
2017-04-21T00:35:21.695Z,805.82
2017-04-21T00:35:26.001Z,805.79
2017-04-21T00:35:30.427Z,805.73
2017-04-21T00:35:34.849Z,805.74
2017-04-21T00:35:39.605Z,805.72
2017-04-21T00:35:43.969Z,805.73
2017-04-21T00:35:48.423Z,805.78
2017-04-21T00:35:53.142Z,805.77
2017-04-21T00:35:57.564Z,805.81
2017-04-21T00:36:01.995Z,805.81
2017-04-21T00:36:06.189Z,805.79
2017-04-21T00:36:10.491Z,805.77
2017-04-21T00:36:14.918Z,805.79
2017-04-21T00:36:19.250Z,805.79
2017-04-21T00:36:23.562Z,805.79
2017-04-21T00:36:27.868Z,805.78
2017-04-21T00:36:32.298Z,805.76
2017-04-21T00:36:36.718Z,805.81
2017-04-21T00:36:41.139Z,805.81
2017-04-21T00:36:45.562Z,805.82
2017-04-21T00:36:50.223Z,805.81
2017-04-21T00:36:54.648Z,805.81
2017-04-21T00:36:58.970Z,805.78
2017-04-21T00:37:03.402Z,805.82
2017-04-21T00:37:07.723Z,805.75
2017-04-21T00:37:12.024Z,805.78
2017-04-21T00:37:16.450Z,805.78
2017-04-21T00:37:20.885Z,805.79
2017-04-21T00:37:25.190Z,805.8
2017-04-21T00:37:29.497Z,805.81
2017-04-21T00:37:33.922Z,805.81
2017-04-21T00:37:38.375Z,805.81
2017-04-21T00:37:42.805Z,805.8
2017-04-21T00:37:47.116Z,805.81
2017-04-21T00:37:51.540Z,805.79
2017-04-21T00:37:56.004Z,805.8
2017-04-21T00:38:00.430Z,805.8
2017-04-21T00:38:04.959Z,805.77
2017-04-21T00:38:09.384Z,805.82
2017-04-21T00:38:13.815Z,805.8
2017-04-21T00:38:18.242Z,805.81
2017-04-21T00:38:22.667Z,805.81
2017-04-21T00:38:26.865Z,805.79
2017-04-21T00:38:31.177Z,805.8
2017-04-21T00:38:35.484Z,805.8
2017-04-21T00:38:39.918Z,805.79
2017-04-21T00:38:44.381Z,805.83
2017-04-21T00:38:48.686Z,805.83
2017-04-21T00:38:53.114Z,805.83
2017-04-21T00:38:57.540Z,805.83
2017-04-21T00:39:02.319Z,805.84
2017-04-21T00:39:06.742Z,805.8
2017-04-21T00:39:11.228Z,805.78
2017-04-21T00:39:15.663Z,805.82
2017-04-21T00:39:20.004Z,805.81
2017-04-21T00:39:24.194Z,805.82
2017-04-21T00:39:28.514Z,805.82
2017-04-21T00:39:32.967Z,805.79
2017-04-21T00:39:37.276Z,805.81
2017-04-21T00:39:41.706Z,805.77
2017-04-21T00:39:46.034Z,805.77
2017-04-21T00:39:50.484Z,805.81
2017-04-21T00:39:54.911Z,805.81
2017-04-21T00:39:59.342Z,805.76
2017-04-21T00:40:03.779Z,805.8
2017-04-21T00:40:08.088Z,805.8
2017-04-21T00:40:12.476Z,805.78
2017-04-21T00:40:17.076Z,805.81
2017-04-21T00:40:21.502Z,805.8
2017-04-21T00:40:25.805Z,805.76
2017-04-21T00:40:30.235Z,805.82
2017-04-21T00:40:34.667Z,805.8
2017-04-21T00:40:39.091Z,805.79
2017-04-21T00:40:43.524Z,805.79
2017-04-21T00:40:47.832Z,805.82
2017-04-21T00:40:52.151Z,805.82
2017-04-21T00:40:56.573Z,805.79
2017-04-21T00:41:01.004Z,805.77
2017-04-21T00:41:05.584Z,805.79
2017-04-21T00:41:10.010Z,805.81
2017-04-21T00:41:14.438Z,805.79
2017-04-21T00:41:18.640Z,805.83
2017-04-21T00:41:23.066Z,805.8
2017-04-21T00:41:27.333Z,805.8
2017-04-21T00:41:31.755Z,805.78
2017-04-21T00:41:36.179Z,805.79
2017-04-21T00:41:40.603Z,805.81
2017-04-21T00:41:45.027Z,805.79
2017-04-21T00:41:49.451Z,805.8
2017-04-21T00:41:53.758Z,805.78
2017-04-21T00:41:58.182Z,805.82
2017-04-21T00:42:02.610Z,805.78
2017-04-21T00:42:06.917Z,805.79
2017-04-21T00:42:11.342Z,805.79
2017-04-21T00:42:15.770Z,805.78
2017-04-21T00:42:20.191Z,805.82
2017-04-21T00:42:24.382Z,805.8
2017-04-21T00:42:28.815Z,805.81
2017-04-21T00:42:33.243Z,805.78
2017-04-21T00:42:37.672Z,805.79
2017-04-21T00:42:42.107Z,805.78
2017-04-21T00:42:46.537Z,805.8
2017-04-21T00:42:50.971Z,805.77
2017-04-21T00:42:55.160Z,805.78
2017-04-21T00:42:59.465Z,805.8
2017-04-21T00:43:03.959Z,805.78
2017-04-21T00:43:08.149Z,805.78
2017-04-21T00:43:12.575Z,805.78
2017-04-21T00:43:17.004Z,805.76
2017-04-21T00:43:21.332Z,805.75
2017-04-21T00:43:25.640Z,805.74
2017-04-21T00:43:29.947Z,805.79
2017-04-21T00:43:34.258Z,805.78
2017-04-21T00:43:38.950Z,805.78
2017-04-21T00:43:43.382Z,805.76
2017-04-21T00:43:47.823Z,805.75
2017-04-21T00:43:52.260Z,805.77
2017-04-21T00:43:56.688Z,805.78
2017-04-21T00:44:00.998Z,805.78
2017-04-21T00:44:05.426Z,805.78
2017-04-21T00:44:09.884Z,805.78
2017-04-21T00:44:14.320Z,805.75
2017-04-21T00:44:18.746Z,805.74
2017-04-21T00:44:23.191Z,805.75
2017-04-21T00:44:27.628Z,805.73
2017-04-21T00:44:31.935Z,805.73
2017-04-21T00:44:36.360Z,805.74
2017-04-21T00:44:40.693Z,805.73
2017-04-21T00:44:45.120Z,805.72
2017-04-21T00:44:49.665Z,805.75
2017-04-21T00:44:53.848Z,805.75
2017-04-21T00:44:58.286Z,805.73
2017-04-21T00:45:02.823Z,805.73
2017-04-21T00:45:07.013Z,805.77
2017-04-21T00:45:11.438Z,805.75
2017-04-21T00:45:15.868Z,805.73
2017-04-21T00:45:20.290Z,805.75
2017-04-21T00:45:24.597Z,805.74
2017-04-21T00:45:28.918Z,805.74
2017-04-21T00:45:33.347Z,805.74
2017-04-21T00:45:37.774Z,805.77
2017-04-21T00:45:42.199Z,805.77
2017-04-21T00:45:46.626Z,805.75
2017-04-21T00:45:50.927Z,805.74
2017-04-21T00:45:55.231Z,805.72
2017-04-21T00:45:59.736Z,805.74
2017-04-21T00:46:04.209Z,805.74
2017-04-21T00:46:08.514Z,805.69
2017-04-21T00:46:12.812Z,805.67
2017-04-21T00:46:17.239Z,805.74
2017-04-21T00:46:21.692Z,805.73
2017-04-21T00:46:26.115Z,805.73
2017-04-21T00:46:30.418Z,805.74
2017-04-21T00:46:34.855Z,805.74
2017-04-21T00:46:39.044Z,805.74
2017-04-21T00:46:43.466Z,805.73
2017-04-21T00:46:47.894Z,805.73
2017-04-21T00:46:52.319Z,805.71
2017-04-21T00:46:56.739Z,805.74
2017-04-21T00:47:01.379Z,805.71
2017-04-21T00:47:05.873Z,805.72
2017-04-21T00:47:10.304Z,805.73
2017-04-21T00:47:14.727Z,805.77
2017-04-21T00:47:19.040Z,805.73
2017-04-21T00:47:23.476Z,805.72
2017-04-21T00:47:27.898Z,805.72
2017-04-21T00:47:32.096Z,805.73
2017-04-21T00:47:36.525Z,805.75
2017-04-21T00:47:40.953Z,805.71
2017-04-21T00:47:45.385Z,805.75
2017-04-21T00:47:49.819Z,805.75
2017-04-21T00:47:54.138Z,805.75
2017-04-21T00:47:58.558Z,805.71
2017-04-21T00:48:02.978Z,805.76
2017-04-21T00:48:07.399Z,805.74
2017-04-21T00:48:11.837Z,805.76
2017-04-21T00:48:16.489Z,805.72
2017-04-21T00:48:20.921Z,805.73
2017-04-21T00:48:25.127Z,805.74
2017-04-21T00:48:29.551Z,805.72
2017-04-21T00:48:33.973Z,805.73
2017-04-21T00:48:38.278Z,805.7
2017-04-21T00:48:42.598Z,805.75
2017-04-21T00:48:47.029Z,805.72
2017-04-21T00:48:51.454Z,805.72
2017-04-21T00:48:55.876Z,805.72
2017-04-21T00:49:00.324Z,805.7
2017-04-21T00:49:04.897Z,805.71
2017-04-21T00:49:09.199Z,805.7
2017-04-21T00:49:13.629Z,805.74
2017-04-21T00:49:18.075Z,805.73
2017-04-21T00:49:22.555Z,805.75
2017-04-21T00:49:26.861Z,805.73
2017-04-21T00:49:31.294Z,805.73
2017-04-21T00:49:35.723Z,805.71
2017-04-21T00:49:40.037Z,805.7
2017-04-21T00:49:44.464Z,805.7
2017-04-21T00:49:48.894Z,805.72
2017-04-21T00:49:53.215Z,805.69
2017-04-21T00:49:57.644Z,805.72
2017-04-21T00:50:02.063Z,805.72
2017-04-21T00:50:06.383Z,805.68
2017-04-21T00:50:10.569Z,805.72
2017-04-21T00:50:14.987Z,805.71
2017-04-21T00:50:19.408Z,805.71
2017-04-21T00:50:23.862Z,805.68
2017-04-21T00:50:28.532Z,805.69
2017-04-21T00:50:32.948Z,805.68
2017-04-21T00:50:37.257Z,805.71
2017-04-21T00:50:41.677Z,805.7
2017-04-21T00:50:45.980Z,805.69
2017-04-21T00:50:50.399Z,805.74
2017-04-21T00:50:54.834Z,805.68
2017-04-21T00:50:59.287Z,805.7
2017-04-21T00:51:03.593Z,805.72
2017-04-21T00:51:07.893Z,805.7
2017-04-21T00:51:12.325Z,805.72
2017-04-21T00:51:16.750Z,805.69
2017-04-21T00:51:20.939Z,805.68
2017-04-21T00:51:25.367Z,805.65
2017-04-21T00:51:29.677Z,805.7
2017-04-21T00:51:34.105Z,805.66
2017-04-21T00:51:38.562Z,805.68
2017-04-21T00:51:42.987Z,805.7
2017-04-21T00:51:47.416Z,805.68
2017-04-21T00:51:51.832Z,805.69
2017-04-21T00:51:56.261Z,805.67
2017-04-21T00:52:00.695Z,805.71
2017-04-21T00:52:05.003Z,805.7
2017-04-21T00:52:09.422Z,805.7
2017-04-21T00:52:13.733Z,805.69
2017-04-21T00:52:18.173Z,805.7
2017-04-21T00:52:22.593Z,805.69
2017-04-21T00:52:27.023Z,805.67
2017-04-21T00:52:31.335Z,805.66
2017-04-21T00:52:35.778Z,805.68
2017-04-21T00:52:40.097Z,805.63
2017-04-21T00:52:44.643Z,805.68
2017-04-21T00:52:49.117Z,805.71
2017-04-21T00:52:53.547Z,805.7
2017-04-21T00:52:57.965Z,805.69
2017-04-21T00:53:02.393Z,805.68
2017-04-21T00:53:06.824Z,805.68
2017-04-21T00:53:11.134Z,805.67
2017-04-21T00:53:15.566Z,805.67
2017-04-21T00:53:19.998Z,805.65
2017-04-21T00:53:24.458Z,805.66
2017-04-21T00:53:28.878Z,805.66
2017-04-21T00:53:33.304Z,805.67
2017-04-21T00:53:37.634Z,805.7
2017-04-21T00:53:41.831Z,805.64
2017-04-21T00:53:46.263Z,805.59
2017-04-21T00:53:50.690Z,805.62
2017-04-21T00:53:55.120Z,805.59
2017-04-21T00:53:59.558Z,805.67
2017-04-21T00:54:04.115Z,805.66
2017-04-21T00:54:08.429Z,805.71
2017-04-21T00:54:12.886Z,805.69
2017-04-21T00:54:17.193Z,805.68
2017-04-21T00:54:21.629Z,805.69
2017-04-21T00:54:25.964Z,805.67
2017-04-21T00:54:30.382Z,805.65
2017-04-21T00:54:34.812Z,805.65
2017-04-21T00:54:39.126Z,805.67
2017-04-21T00:54:43.577Z,805.63
2017-04-21T00:54:47.882Z,805.63
2017-04-21T00:54:52.184Z,805.64
2017-04-21T00:54:56.805Z,805.63
2017-04-21T00:55:01.348Z,805.64
2017-04-21T00:55:05.652Z,805.62
2017-04-21T00:55:10.072Z,805.63
2017-04-21T00:55:14.501Z,805.65
2017-04-21T00:55:18.954Z,805.6
2017-04-21T00:55:23.267Z,805.56